sensor_id;sensor_type;location;lat;lon;timestamp;P1;durP1;ratioP1;P2;durP2;ratioP2
52360;SDS011;38294;42.966;1.608;2022-10-16T02:23:04;5.75;;;1.90;;
52360;SDS011;38294;42.966;1.608;2022-10-16T02:25:35;2.78;;;2.08;;
52360;SDS011;38294;42.966;1.608;2022-10-16T02:28:22;3.25;;;2.13;;
52360;SDS011;38294;42.966;1.608;2022-10-16T02:30:57;4.38;;;2.38;;
52360;SDS011;38294;42.966;1.608;2022-10-16T02:33:25;4.15;;;1.75;;
52360;SDS011;38294;42.966;1.608;2022-10-16T02:35:52;2.78;;;2.00;;
52360;SDS011;38294;42.966;1.608;2022-10-16T02:38:20;2.35;;;2.08;;
52360;SDS011;38294;42.966;1.608;2022-10-16T02:40:47;2.60;;;2.00;;
52360;SDS011;38294;42.966;1.608;2022-10-16T02:43:13;6.22;;;1.90;;
52360;SDS011;38294;42.966;1.608;2022-10-16T02:45:39;2.53;;;2.33;;
52360;SDS011;38294;42.966;1.608;2022-10-16T02:48:05;2.38;;;1.98;;
52360;SDS011;38294;42.966;1.608;2022-10-16T02:50:31;3.80;;;1.80;;
52360;SDS011;38294;42.966;1.608;2022-10-16T02:52:56;1.70;;;1.60;;
52360;SDS011;38294;42.966;1.608;2022-10-16T02:55:22;3.97;;;2.25;;
52360;SDS011;38294;42.966;1.608;2022-10-16T02:57:47;4.97;;;2.03;;
52360;SDS011;38294;42.966;1.608;2022-10-16T03:00:14;4.50;;;2.10;;
52360;SDS011;38294;42.966;1.608;2022-10-16T03:02:41;4.07;;;1.80;;
52360;SDS011;38294;42.966;1.608;2022-10-16T03:05:07;2.90;;;1.73;;
52360;SDS011;38294;42.966;1.608;2022-10-16T03:07:33;5.63;;;2.20;;
52360;SDS011;38294;42.966;1.608;2022-10-16T03:09:59;2.42;;;1.70;;
52360;SDS011;38294;42.966;1.608;2022-10-16T03:12:28;2.42;;;1.80;;
52360;SDS011;38294;42.966;1.608;2022-10-16T03:14:54;5.20;;;1.90;;
52360;SDS011;38294;42.966;1.608;2022-10-16T03:17:21;4.13;;;2.30;;
52360;SDS011;38294;42.966;1.608;2022-10-16T03:19:47;2.17;;;1.88;;
52360;SDS011;38294;42.966;1.608;2022-10-16T03:22:12;8.85;;;3.78;;
52360;SDS011;38294;42.966;1.608;2022-10-16T03:24:38;2.03;;;1.80;;
52360;SDS011;38294;42.966;1.608;2022-10-16T03:27:03;3.50;;;1.70;;
52360;SDS011;38294;42.966;1.608;2022-10-16T03:29:29;4.50;;;2.00;;
52360;SDS011;38294;42.966;1.608;2022-10-16T03:31:55;3.00;;;1.67;;
52360;SDS011;38294;42.966;1.608;2022-10-16T03:34:21;4.30;;;1.85;;
52360;SDS011;38294;42.966;1.608;2022-10-16T03:36:47;2.10;;;1.90;;
52360;SDS011;38294;42.966;1.608;2022-10-16T03:39:13;3.42;;;1.90;;
52360;SDS011;38294;42.966;1.608;2022-10-16T03:41:38;3.10;;;2.15;;
52360;SDS011;38294;42.966;1.608;2022-10-16T03:44:04;2.20;;;1.90;;
52360;SDS011;38294;42.966;1.608;2022-10-16T03:46:30;3.72;;;2.00;;
52360;SDS011;38294;42.966;1.608;2022-10-16T03:48:56;5.50;;;1.90;;
52360;SDS011;38294;42.966;1.608;2022-10-16T03:51:21;2.90;;;1.85;;
52360;SDS011;38294;42.966;1.608;2022-10-16T03:53:47;2.28;;;1.80;;
52360;SDS011;38294;42.966;1.608;2022-10-16T03:56:12;2.85;;;1.85;;
52360;SDS011;38294;42.966;1.608;2022-10-16T03:58:38;2.65;;;2.00;;
52360;SDS011;38294;42.966;1.608;2022-10-16T04:01:04;4.68;;;1.70;;
52360;SDS011;38294;42.966;1.608;2022-10-16T04:03:29;2.05;;;1.63;;
52360;SDS011;38294;42.966;1.608;2022-10-16T04:05:55;2.95;;;1.80;;
52360;SDS011;38294;42.966;1.608;2022-10-16T04:08:20;2.45;;;1.88;;
52360;SDS011;38294;42.966;1.608;2022-10-16T04:10:46;2.60;;;1.88;;
52360;SDS011;38294;42.966;1.608;2022-10-16T04:13:12;3.25;;;1.85;;
52360;SDS011;38294;42.966;1.608;2022-10-16T04:15:38;2.67;;;1.73;;
52360;SDS011;38294;42.966;1.608;2022-10-16T04:18:04;2.40;;;2.05;;
52360;SDS011;38294;42.966;1.608;2022-10-16T04:20:30;2.10;;;1.90;;
52360;SDS011;38294;42.966;1.608;2022-10-16T04:22:56;7.43;;;2.03;;
52360;SDS011;38294;42.966;1.608;2022-10-16T04:25:22;6.30;;;2.33;;
52360;SDS011;38294;42.966;1.608;2022-10-16T04:27:47;2.70;;;1.80;;
52360;SDS011;38294;42.966;1.608;2022-10-16T04:30:13;3.10;;;2.00;;
52360;SDS011;38294;42.966;1.608;2022-10-16T04:32:39;3.92;;;2.05;;
52360;SDS011;38294;42.966;1.608;2022-10-16T04:35:05;2.92;;;1.80;;
52360;SDS011;38294;42.966;1.608;2022-10-16T04:37:30;6.63;;;1.92;;
52360;SDS011;38294;42.966;1.608;2022-10-16T04:39:56;6.07;;;2.00;;
52360;SDS011;38294;42.966;1.608;2022-10-16T04:42:21;7.07;;;1.90;;
52360;SDS011;38294;42.966;1.608;2022-10-16T04:44:47;4.90;;;1.80;;
52360;SDS011;38294;42.966;1.608;2022-10-16T04:47:13;1.63;;;1.50;;
52360;SDS011;38294;42.966;1.608;2022-10-16T04:49:39;4.25;;;1.73;;
52360;SDS011;38294;42.966;1.608;2022-10-16T04:52:04;2.50;;;1.83;;
52360;SDS011;38294;42.966;1.608;2022-10-16T04:54:30;7.80;;;1.90;;
52360;SDS011;38294;42.966;1.608;2022-10-16T04:56:56;4.13;;;2.10;;
52360;SDS011;38294;42.966;1.608;2022-10-16T04:59:22;3.20;;;2.25;;
52360;SDS011;38294;42.966;1.608;2022-10-16T05:01:47;1.92;;;1.73;;
52360;SDS011;38294;42.966;1.608;2022-10-16T05:04:14;2.15;;;1.95;;
52360;SDS011;38294;42.966;1.608;2022-10-16T05:06:40;3.28;;;1.80;;
52360;SDS011;38294;42.966;1.608;2022-10-16T05:09:07;2.92;;;1.83;;
52360;SDS011;38294;42.966;1.608;2022-10-16T05:11:33;4.13;;;1.83;;
52360;SDS011;38294;42.966;1.608;2022-10-16T05:13:59;2.15;;;1.70;;
52360;SDS011;38294;42.966;1.608;2022-10-16T05:16:25;4.97;;;1.80;;
52360;SDS011;38294;42.966;1.608;2022-10-16T05:18:51;2.72;;;1.63;;
52360;SDS011;38294;42.966;1.608;2022-10-16T05:21:17;1.80;;;1.70;;
52360;SDS011;38294;42.966;1.608;2022-10-16T05:23:42;2.85;;;1.95;;
52360;SDS011;38294;42.966;1.608;2022-10-16T05:26:08;2.55;;;1.92;;
52360;SDS011;38294;42.966;1.608;2022-10-16T05:28:34;4.05;;;2.13;;
52360;SDS011;38294;42.966;1.608;2022-10-16T05:31:04;1.83;;;1.65;;
52360;SDS011;38294;42.966;1.608;2022-10-16T05:33:31;2.78;;;1.90;;
52360;SDS011;38294;42.966;1.608;2022-10-16T05:36:00;3.65;;;1.88;;
52360;SDS011;38294;42.966;1.608;2022-10-16T05:38:30;2.28;;;1.73;;
52360;SDS011;38294;42.966;1.608;2022-10-16T05:40:55;4.80;;;2.03;;
52360;SDS011;38294;42.966;1.608;2022-10-16T05:43:21;5.38;;;1.90;;
52360;SDS011;38294;42.966;1.608;2022-10-16T05:45:54;3.38;;;1.70;;
52360;SDS011;38294;42.966;1.608;2022-10-16T05:48:21;4.88;;;1.80;;
52360;SDS011;38294;42.966;1.608;2022-10-16T05:50:47;6.95;;;2.00;;
52360;SDS011;38294;42.966;1.608;2022-10-16T05:53:13;1.70;;;1.60;;
52360;SDS011;38294;42.966;1.608;2022-10-16T05:55:38;2.75;;;1.98;;
52360;SDS011;38294;42.966;1.608;2022-10-16T05:58:04;2.60;;;2.03;;
52360;SDS011;38294;42.966;1.608;2022-10-16T06:00:29;4.90;;;2.08;;
52360;SDS011;38294;42.966;1.608;2022-10-16T06:02:55;2.17;;;1.60;;
52360;SDS011;38294;42.966;1.608;2022-10-16T06:05:20;2.40;;;1.90;;
52360;SDS011;38294;42.966;1.608;2022-10-16T06:07:46;2.20;;;1.88;;
52360;SDS011;38294;42.966;1.608;2022-10-16T06:10:11;2.55;;;1.80;;
52360;SDS011;38294;42.966;1.608;2022-10-16T06:12:37;2.42;;;1.73;;
52360;SDS011;38294;42.966;1.608;2022-10-16T06:15:02;2.65;;;1.83;;
52360;SDS011;38294;42.966;1.608;2022-10-16T06:17:28;6.22;;;2.03;;
52360;SDS011;38294;42.966;1.608;2022-10-16T06:19:54;2.40;;;1.60;;
52360;SDS011;38294;42.966;1.608;2022-10-16T06:22:19;3.90;;;1.60;;
52360;SDS011;38294;42.966;1.608;2022-10-16T06:24:45;2.38;;;1.83;;
52360;SDS011;38294;42.966;1.608;2022-10-16T06:27:11;4.90;;;2.00;;
52360;SDS011;38294;42.966;1.608;2022-10-16T06:29:36;3.88;;;1.88;;
52360;SDS011;38294;42.966;1.608;2022-10-16T06:32:02;3.42;;;1.92;;
52360;SDS011;38294;42.966;1.608;2022-10-16T06:34:28;4.20;;;1.60;;
52360;SDS011;38294;42.966;1.608;2022-10-16T06:36:53;3.60;;;1.80;;
52360;SDS011;38294;42.966;1.608;2022-10-16T06:39:19;2.10;;;1.90;;
52360;SDS011;38294;42.966;1.608;2022-10-16T06:41:44;3.25;;;1.70;;
52360;SDS011;38294;42.966;1.608;2022-10-16T06:44:10;4.20;;;1.98;;
52360;SDS011;38294;42.966;1.608;2022-10-16T06:46:35;2.00;;;1.50;;
52360;SDS011;38294;42.966;1.608;2022-10-16T06:49:01;3.92;;;2.35;;
52360;SDS011;38294;42.966;1.608;2022-10-16T06:51:27;5.07;;;2.10;;
52360;SDS011;38294;42.966;1.608;2022-10-16T06:53:53;2.78;;;2.00;;
52360;SDS011;38294;42.966;1.608;2022-10-16T06:56:25;4.88;;;2.00;;
52360;SDS011;38294;42.966;1.608;2022-10-16T06:58:52;3.10;;;1.80;;
52360;SDS011;38294;42.966;1.608;2022-10-16T07:01:20;2.58;;;1.88;;
52360;SDS011;38294;42.966;1.608;2022-10-16T07:03:46;4.15;;;1.92;;
52360;SDS011;38294;42.966;1.608;2022-10-16T07:06:13;3.08;;;1.90;;
52360;SDS011;38294;42.966;1.608;2022-10-16T07:08:41;6.38;;;2.70;;
52360;SDS011;38294;42.966;1.608;2022-10-16T07:11:08;6.35;;;2.10;;
52360;SDS011;38294;42.966;1.608;2022-10-16T07:13:36;3.83;;;1.90;;
52360;SDS011;38294;42.966;1.608;2022-10-16T07:16:06;6.22;;;1.85;;
52360;SDS011;38294;42.966;1.608;2022-10-16T07:18:33;2.97;;;1.83;;
52360;SDS011;38294;42.966;1.608;2022-10-16T07:21:06;2.33;;;1.80;;
52360;SDS011;38294;42.966;1.608;2022-10-16T07:23:33;3.25;;;1.80;;
52360;SDS011;38294;42.966;1.608;2022-10-16T07:25:59;3.92;;;1.80;;
52360;SDS011;38294;42.966;1.608;2022-10-16T07:28:25;7.30;;;1.85;;
52360;SDS011;38294;42.966;1.608;2022-10-16T07:30:51;3.10;;;1.95;;
52360;SDS011;38294;42.966;1.608;2022-10-16T07:33:17;2.08;;;1.65;;
52360;SDS011;38294;42.966;1.608;2022-10-16T07:35:49;3.45;;;2.30;;
52360;SDS011;38294;42.966;1.608;2022-10-16T07:38:18;5.90;;;2.22;;
52360;SDS011;38294;42.966;1.608;2022-10-16T07:40:44;2.53;;;1.70;;
52360;SDS011;38294;42.966;1.608;2022-10-16T07:43:10;3.70;;;2.08;;
52360;SDS011;38294;42.966;1.608;2022-10-16T07:45:36;5.07;;;1.60;;
52360;SDS011;38294;42.966;1.608;2022-10-16T07:48:02;3.13;;;1.85;;
52360;SDS011;38294;42.966;1.608;2022-10-16T07:50:27;2.45;;;1.60;;
52360;SDS011;38294;42.966;1.608;2022-10-16T07:52:53;6.03;;;1.88;;
52360;SDS011;38294;42.966;1.608;2022-10-16T07:55:18;2.20;;;1.60;;
52360;SDS011;38294;42.966;1.608;2022-10-16T07:57:44;2.63;;;1.98;;
52360;SDS011;38294;42.966;1.608;2022-10-16T08:00:09;4.45;;;1.95;;
52360;SDS011;38294;42.966;1.608;2022-10-16T08:02:41;2.80;;;1.75;;
52360;SDS011;38294;42.966;1.608;2022-10-16T08:05:07;2.75;;;1.77;;
52360;SDS011;38294;42.966;1.608;2022-10-16T08:07:33;2.88;;;1.75;;
52360;SDS011;38294;42.966;1.608;2022-10-16T08:09:59;3.60;;;2.00;;
52360;SDS011;38294;42.966;1.608;2022-10-16T08:12:27;3.92;;;2.45;;
52360;SDS011;38294;42.966;1.608;2022-10-16T08:14:53;5.72;;;2.75;;
52360;SDS011;38294;42.966;1.608;2022-10-16T08:17:18;5.25;;;2.88;;
52360;SDS011;38294;42.966;1.608;2022-10-16T08:19:45;7.18;;;1.88;;
52360;SDS011;38294;42.966;1.608;2022-10-16T08:22:12;5.43;;;2.08;;
52360;SDS011;38294;42.966;1.608;2022-10-16T08:24:39;3.28;;;2.25;;
52360;SDS011;38294;42.966;1.608;2022-10-16T08:27:04;4.75;;;1.90;;
52360;SDS011;38294;42.966;1.608;2022-10-16T08:29:30;3.22;;;2.22;;
52360;SDS011;38294;42.966;1.608;2022-10-16T08:31:55;6.15;;;1.80;;
52360;SDS011;38294;42.966;1.608;2022-10-16T08:34:21;3.70;;;2.20;;
52360;SDS011;38294;42.966;1.608;2022-10-16T08:36:46;2.30;;;1.90;;
52360;SDS011;38294;42.966;1.608;2022-10-16T08:39:12;3.80;;;2.10;;
52360;SDS011;38294;42.966;1.608;2022-10-16T08:47:11;5.72;;;2.70;;
52360;SDS011;38294;42.966;1.608;2022-10-16T08:49:43;8.85;;;3.50;;
52360;SDS011;38294;42.966;1.608;2022-10-16T08:52:21;9.65;;;4.38;;
52360;SDS011;38294;42.966;1.608;2022-10-16T08:54:48;13.25;;;5.65;;
52360;SDS011;38294;42.966;1.608;2022-10-16T08:57:19;3.78;;;2.40;;
52360;SDS011;38294;42.966;1.608;2022-10-16T08:59:47;4.72;;;2.30;;
52360;SDS011;38294;42.966;1.608;2022-10-16T09:07:38;3.10;;;2.80;;
52360;SDS011;38294;42.966;1.608;2022-10-16T09:10:26;4.82;;;2.60;;
52360;SDS011;38294;42.966;1.608;2022-10-16T09:15:35;5.88;;;2.42;;
52360;SDS011;38294;42.966;1.608;2022-10-16T09:18:12;4.20;;;2.40;;
52360;SDS011;38294;42.966;1.608;2022-10-16T09:20:49;5.50;;;2.55;;
52360;SDS011;38294;42.966;1.608;2022-10-16T09:23:30;4.75;;;2.72;;
52360;SDS011;38294;42.966;1.608;2022-10-16T09:25:59;6.93;;;3.10;;
52360;SDS011;38294;42.966;1.608;2022-10-16T09:28:24;4.22;;;2.72;;
52360;SDS011;38294;42.966;1.608;2022-10-16T09:30:50;6.50;;;3.17;;
52360;SDS011;38294;42.966;1.608;2022-10-16T09:33:21;3.17;;;2.88;;
52360;SDS011;38294;42.966;1.608;2022-10-16T09:35:58;6.45;;;3.03;;
52360;SDS011;38294;42.966;1.608;2022-10-16T09:38:28;4.03;;;3.00;;
52360;SDS011;38294;42.966;1.608;2022-10-16T09:41:22;3.55;;;2.70;;
52360;SDS011;38294;42.966;1.608;2022-10-16T09:43:49;3.95;;;3.08;;
52360;SDS011;38294;42.966;1.608;2022-10-16T09:46:28;3.17;;;2.90;;
52360;SDS011;38294;42.966;1.608;2022-10-16T09:49:18;3.63;;;3.00;;
52360;SDS011;38294;42.966;1.608;2022-10-16T09:54:20;4.45;;;3.20;;
52360;SDS011;38294;42.966;1.608;2022-10-16T09:56:46;4.28;;;2.60;;
52360;SDS011;38294;42.966;1.608;2022-10-16T09:59:20;4.30;;;2.47;;
52360;SDS011;38294;42.966;1.608;2022-10-16T10:04:15;5.03;;;2.92;;
52360;SDS011;38294;42.966;1.608;2022-10-16T10:06:43;8.02;;;3.10;;
52360;SDS011;38294;42.966;1.608;2022-10-16T10:11:57;5.05;;;3.30;;
52360;SDS011;38294;42.966;1.608;2022-10-16T10:17:44;5.18;;;3.63;;
52360;SDS011;38294;42.966;1.608;2022-10-16T10:25:07;3.80;;;3.35;;
52360;SDS011;38294;42.966;1.608;2022-10-16T10:27:45;7.13;;;4.10;;
52360;SDS011;38294;42.966;1.608;2022-10-16T10:39:07;4.38;;;3.50;;
52360;SDS011;38294;42.966;1.608;2022-10-16T10:44:26;5.03;;;3.38;;
52360;SDS011;38294;42.966;1.608;2022-10-16T10:55:54;4.18;;;3.78;;
52360;SDS011;38294;42.966;1.608;2022-10-16T11:01:16;8.68;;;3.83;;
52360;SDS011;38294;42.966;1.608;2022-10-16T11:06:29;6.13;;;3.70;;
52360;SDS011;38294;42.966;1.608;2022-10-16T11:09:06;5.53;;;3.50;;
52360;SDS011;38294;42.966;1.608;2022-10-16T11:14:14;5.05;;;3.38;;
52360;SDS011;38294;42.966;1.608;2022-10-16T11:19:14;6.45;;;3.55;;
52360;SDS011;38294;42.966;1.608;2022-10-16T11:21:45;5.78;;;3.67;;
52360;SDS011;38294;42.966;1.608;2022-10-16T11:26:52;7.65;;;3.80;;
52360;SDS011;38294;42.966;1.608;2022-10-16T11:29:23;5.53;;;3.78;;
52360;SDS011;38294;42.966;1.608;2022-10-16T11:31:55;6.97;;;3.80;;
52360;SDS011;38294;42.966;1.608;2022-10-16T11:37:20;6.72;;;3.90;;
52360;SDS011;38294;42.966;1.608;2022-10-16T11:39:50;5.88;;;3.60;;
52360;SDS011;38294;42.966;1.608;2022-10-16T11:42:21;10.93;;;3.60;;
52360;SDS011;38294;42.966;1.608;2022-10-16T11:50:01;7.78;;;3.90;;
52360;SDS011;38294;42.966;1.608;2022-10-16T11:55:46;5.45;;;3.85;;
52360;SDS011;38294;42.966;1.608;2022-10-16T11:58:17;7.13;;;4.18;;
52360;SDS011;38294;42.966;1.608;2022-10-16T12:03:26;6.43;;;3.67;;
52360;SDS011;38294;42.966;1.608;2022-10-16T12:08:49;9.68;;;3.80;;
52360;SDS011;38294;42.966;1.608;2022-10-16T12:11:22;8.50;;;3.60;;
52360;SDS011;38294;42.966;1.608;2022-10-16T12:14:59;5.35;;;3.65;;
52360;SDS011;38294;42.966;1.608;2022-10-16T12:17:02;7.20;;;4.05;;
52360;SDS011;38294;42.966;1.608;2022-10-16T12:19:56;7.20;;;4.00;;
52360;SDS011;38294;42.966;1.608;2022-10-16T12:22:27;6.45;;;4.00;;
52360;SDS011;38294;42.966;1.608;2022-10-16T12:24:56;5.43;;;3.50;;
52360;SDS011;38294;42.966;1.608;2022-10-16T12:30:03;8.15;;;3.72;;
52360;SDS011;38294;42.966;1.608;2022-10-16T12:32:35;8.20;;;4.70;;
52360;SDS011;38294;42.966;1.608;2022-10-16T12:35:04;9.52;;;4.13;;
52360;SDS011;38294;42.966;1.608;2022-10-16T12:37:41;6.38;;;3.80;;
52360;SDS011;38294;42.966;1.608;2022-10-16T12:42:52;7.55;;;4.10;;
52360;SDS011;38294;42.966;1.608;2022-10-16T12:45:31;9.63;;;4.05;;
52360;SDS011;38294;42.966;1.608;2022-10-16T12:47:59;9.95;;;3.90;;
52360;SDS011;38294;42.966;1.608;2022-10-16T12:50:28;10.65;;;4.20;;
52360;SDS011;38294;42.966;1.608;2022-10-16T12:53:24;6.20;;;3.80;;
52360;SDS011;38294;42.966;1.608;2022-10-16T12:56:13;7.65;;;3.75;;
52360;SDS011;38294;42.966;1.608;2022-10-16T12:58:53;7.47;;;4.10;;
52360;SDS011;38294;42.966;1.608;2022-10-16T13:01:34;7.95;;;3.80;;
52360;SDS011;38294;42.966;1.608;2022-10-16T13:12:44;8.43;;;4.22;;
52360;SDS011;38294;42.966;1.608;2022-10-16T13:28:37;6.75;;;3.80;;
52360;SDS011;38294;42.966;1.608;2022-10-16T13:31:04;5.60;;;3.95;;
52360;SDS011;38294;42.966;1.608;2022-10-16T13:33:37;7.65;;;4.05;;
52360;SDS011;38294;42.966;1.608;2022-10-16T13:36:06;6.70;;;3.85;;
52360;SDS011;38294;42.966;1.608;2022-10-16T13:38:33;6.68;;;4.43;;
52360;SDS011;38294;42.966;1.608;2022-10-16T13:41:04;5.97;;;3.83;;
52360;SDS011;38294;42.966;1.608;2022-10-16T13:43:32;5.88;;;4.05;;
52360;SDS011;38294;42.966;1.608;2022-10-16T13:46:03;6.47;;;3.92;;
52360;SDS011;38294;42.966;1.608;2022-10-16T13:48:31;7.53;;;4.20;;
52360;SDS011;38294;42.966;1.608;2022-10-16T13:51:05;7.05;;;4.13;;
52360;SDS011;38294;42.966;1.608;2022-10-16T13:53:41;8.27;;;4.03;;
52360;SDS011;38294;42.966;1.608;2022-10-16T13:56:11;7.82;;;4.32;;
52360;SDS011;38294;42.966;1.608;2022-10-16T13:58:39;8.98;;;4.40;;
52360;SDS011;38294;42.966;1.608;2022-10-16T14:01:27;6.88;;;4.25;;
52360;SDS011;38294;42.966;1.608;2022-10-16T14:04:00;9.10;;;4.73;;
52360;SDS011;38294;42.966;1.608;2022-10-16T14:06:31;10.25;;;4.32;;
52360;SDS011;38294;42.966;1.608;2022-10-16T14:11:30;6.63;;;4.30;;
52360;SDS011;38294;42.966;1.608;2022-10-16T14:13:56;8.35;;;4.20;;
52360;SDS011;38294;42.966;1.608;2022-10-16T14:16:23;6.43;;;4.18;;
52360;SDS011;38294;42.966;1.608;2022-10-16T14:18:58;7.72;;;3.70;;
52360;SDS011;38294;42.966;1.608;2022-10-16T14:21:27;9.65;;;4.25;;
52360;SDS011;38294;42.966;1.608;2022-10-16T14:23:53;7.85;;;4.50;;
52360;SDS011;38294;42.966;1.608;2022-10-16T14:26:22;9.48;;;4.65;;
52360;SDS011;38294;42.966;1.608;2022-10-16T14:29:00;8.65;;;4.25;;
52360;SDS011;38294;42.966;1.608;2022-10-16T14:31:32;5.70;;;3.95;;
52360;SDS011;38294;42.966;1.608;2022-10-16T14:33:59;8.50;;;4.97;;
52360;SDS011;38294;42.966;1.608;2022-10-16T14:36:26;10.90;;;4.25;;
52360;SDS011;38294;42.966;1.608;2022-10-16T14:38:57;7.20;;;4.50;;
52360;SDS011;38294;42.966;1.608;2022-10-16T14:41:25;7.20;;;4.13;;
52360;SDS011;38294;42.966;1.608;2022-10-16T14:43:52;8.88;;;4.50;;
52360;SDS011;38294;42.966;1.608;2022-10-16T14:46:21;7.15;;;4.13;;
52360;SDS011;38294;42.966;1.608;2022-10-16T14:48:55;7.53;;;4.22;;
52360;SDS011;38294;42.966;1.608;2022-10-16T14:51:26;7.63;;;4.13;;
52360;SDS011;38294;42.966;1.608;2022-10-16T14:53:52;7.65;;;4.20;;
52360;SDS011;38294;42.966;1.608;2022-10-16T14:56:24;7.30;;;4.13;;
52360;SDS011;38294;42.966;1.608;2022-10-16T14:58:53;10.45;;;3.83;;
52360;SDS011;38294;42.966;1.608;2022-10-16T15:01:20;8.18;;;4.28;;
52360;SDS011;38294;42.966;1.608;2022-10-16T15:03:46;9.90;;;4.38;;
52360;SDS011;38294;42.966;1.608;2022-10-16T15:06:15;9.35;;;4.25;;
52360;SDS011;38294;42.966;1.608;2022-10-16T15:08:41;7.32;;;4.13;;
52360;SDS011;38294;42.966;1.608;2022-10-16T15:11:13;11.50;;;4.50;;
52360;SDS011;38294;42.966;1.608;2022-10-16T15:13:41;6.93;;;4.22;;
52360;SDS011;38294;42.966;1.608;2022-10-16T15:16:11;9.60;;;3.92;;
52360;SDS011;38294;42.966;1.608;2022-10-16T15:18:38;8.40;;;4.30;;
52360;SDS011;38294;42.966;1.608;2022-10-16T15:21:04;8.90;;;4.03;;
52360;SDS011;38294;42.966;1.608;2022-10-16T15:23:30;7.35;;;4.50;;
52360;SDS011;38294;42.966;1.608;2022-10-16T15:25:56;7.20;;;4.35;;
52360;SDS011;38294;42.966;1.608;2022-10-16T15:28:22;7.47;;;3.88;;
52360;SDS011;38294;42.966;1.608;2022-10-16T15:30:50;10.88;;;4.70;;
52360;SDS011;38294;42.966;1.608;2022-10-16T15:33:17;8.68;;;4.15;;
52360;SDS011;38294;42.966;1.608;2022-10-16T15:35:51;8.65;;;4.30;;
52360;SDS011;38294;42.966;1.608;2022-10-16T15:38:18;7.40;;;3.90;;
52360;SDS011;38294;42.966;1.608;2022-10-16T15:40:45;9.38;;;4.20;;
52360;SDS011;38294;42.966;1.608;2022-10-16T15:43:11;11.95;;;4.50;;
52360;SDS011;38294;42.966;1.608;2022-10-16T15:45:37;8.43;;;4.30;;
52360;SDS011;38294;42.966;1.608;2022-10-16T15:48:03;7.00;;;4.18;;
52360;SDS011;38294;42.966;1.608;2022-10-16T15:50:29;8.15;;;4.28;;
52360;SDS011;38294;42.966;1.608;2022-10-16T15:52:56;8.40;;;4.05;;
52360;SDS011;38294;42.966;1.608;2022-10-16T15:55:22;10.27;;;4.20;;
52360;SDS011;38294;42.966;1.608;2022-10-16T15:57:48;8.40;;;4.20;;
52360;SDS011;38294;42.966;1.608;2022-10-16T16:00:17;9.70;;;4.25;;
52360;SDS011;38294;42.966;1.608;2022-10-16T16:02:49;8.00;;;4.60;;
52360;SDS011;38294;42.966;1.608;2022-10-16T16:05:18;10.70;;;4.50;;
52360;SDS011;38294;42.966;1.608;2022-10-16T16:07:44;6.35;;;4.50;;
52360;SDS011;38294;42.966;1.608;2022-10-16T16:10:10;9.05;;;4.75;;
52360;SDS011;38294;42.966;1.608;2022-10-16T16:12:36;7.30;;;4.32;;
52360;SDS011;38294;42.966;1.608;2022-10-16T16:15:07;8.88;;;4.50;;
52360;SDS011;38294;42.966;1.608;2022-10-16T16:17:35;10.55;;;6.03;;
52360;SDS011;38294;42.966;1.608;2022-10-16T16:20:01;8.27;;;4.68;;
52360;SDS011;38294;42.966;1.608;2022-10-16T16:22:28;8.65;;;4.70;;
52360;SDS011;38294;42.966;1.608;2022-10-16T16:24:54;10.07;;;4.43;;
52360;SDS011;38294;42.966;1.608;2022-10-16T16:27:20;10.23;;;4.93;;
52360;SDS011;38294;42.966;1.608;2022-10-16T16:29:46;8.25;;;5.00;;
52360;SDS011;38294;42.966;1.608;2022-10-16T16:32:12;8.68;;;4.75;;
52360;SDS011;38294;42.966;1.608;2022-10-16T16:34:38;7.85;;;4.53;;
52360;SDS011;38294;42.966;1.608;2022-10-16T16:37:03;8.85;;;4.20;;
52360;SDS011;38294;42.966;1.608;2022-10-16T16:39:29;9.50;;;4.45;;
52360;SDS011;38294;42.966;1.608;2022-10-16T16:41:57;12.05;;;4.95;;
52360;SDS011;38294;42.966;1.608;2022-10-16T16:44:27;11.80;;;3.85;;
52360;SDS011;38294;42.966;1.608;2022-10-16T16:46:53;10.23;;;4.60;;
52360;SDS011;38294;42.966;1.608;2022-10-16T16:49:19;9.85;;;4.00;;
52360;SDS011;38294;42.966;1.608;2022-10-16T16:51:45;9.75;;;4.95;;
52360;SDS011;38294;42.966;1.608;2022-10-16T16:54:10;11.25;;;4.53;;
52360;SDS011;38294;42.966;1.608;2022-10-16T16:56:38;10.82;;;4.90;;
52360;SDS011;38294;42.966;1.608;2022-10-16T16:59:04;6.90;;;3.90;;
52360;SDS011;38294;42.966;1.608;2022-10-16T17:01:30;9.93;;;4.53;;
52360;SDS011;38294;42.966;1.608;2022-10-16T17:03:56;7.22;;;3.92;;
52360;SDS011;38294;42.966;1.608;2022-10-16T17:06:26;7.55;;;3.95;;
52360;SDS011;38294;42.966;1.608;2022-10-16T17:08:54;10.23;;;4.75;;
52360;SDS011;38294;42.966;1.608;2022-10-16T17:11:22;8.13;;;4.88;;
52360;SDS011;38294;42.966;1.608;2022-10-16T17:13:49;11.00;;;3.80;;
52360;SDS011;38294;42.966;1.608;2022-10-16T17:16:17;11.43;;;4.10;;
52360;SDS011;38294;42.966;1.608;2022-10-16T17:18:43;10.20;;;3.50;;
52360;SDS011;38294;42.966;1.608;2022-10-16T17:21:09;14.05;;;4.13;;
52360;SDS011;38294;42.966;1.608;2022-10-16T17:23:35;8.73;;;3.58;;
52360;SDS011;38294;42.966;1.608;2022-10-16T17:26:08;8.82;;;3.75;;
52360;SDS011;38294;42.966;1.608;2022-10-16T17:28:36;6.25;;;3.58;;
52360;SDS011;38294;42.966;1.608;2022-10-16T17:33:38;8.35;;;3.88;;
52360;SDS011;38294;42.966;1.608;2022-10-16T17:36:05;7.07;;;3.70;;
52360;SDS011;38294;42.966;1.608;2022-10-16T17:38:31;13.48;;;4.38;;
52360;SDS011;38294;42.966;1.608;2022-10-16T17:40:56;15.35;;;4.55;;
52360;SDS011;38294;42.966;1.608;2022-10-16T17:43:22;10.93;;;3.95;;
52360;SDS011;38294;42.966;1.608;2022-10-16T17:45:47;12.13;;;4.97;;
52360;SDS011;38294;42.966;1.608;2022-10-16T17:48:13;7.07;;;4.00;;
52360;SDS011;38294;42.966;1.608;2022-10-16T17:50:39;13.80;;;3.80;;
52360;SDS011;38294;42.966;1.608;2022-10-16T17:53:05;10.18;;;4.20;;
52360;SDS011;38294;42.966;1.608;2022-10-16T17:55:36;10.73;;;3.75;;
52360;SDS011;38294;42.966;1.608;2022-10-16T17:58:02;14.18;;;4.15;;
52360;SDS011;38294;42.966;1.608;2022-10-16T18:00:28;7.95;;;3.33;;
52360;SDS011;38294;42.966;1.608;2022-10-16T18:02:53;11.65;;;4.20;;
52360;SDS011;38294;42.966;1.608;2022-10-16T18:05:19;9.73;;;3.78;;
52360;SDS011;38294;42.966;1.608;2022-10-16T18:07:44;8.68;;;4.10;;
52360;SDS011;38294;42.966;1.608;2022-10-16T18:10:10;16.33;;;4.13;;
52360;SDS011;38294;42.966;1.608;2022-10-16T18:12:36;13.02;;;3.92;;
52360;SDS011;38294;42.966;1.608;2022-10-16T18:15:01;9.18;;;4.32;;
52360;SDS011;38294;42.966;1.608;2022-10-16T18:17:27;8.80;;;3.90;;
52360;SDS011;38294;42.966;1.608;2022-10-16T18:19:53;10.02;;;3.70;;
52360;SDS011;38294;42.966;1.608;2022-10-16T18:22:19;10.15;;;4.20;;
52360;SDS011;38294;42.966;1.608;2022-10-16T18:24:44;10.38;;;4.28;;
52360;SDS011;38294;42.966;1.608;2022-10-16T18:27:10;10.30;;;4.38;;
52360;SDS011;38294;42.966;1.608;2022-10-16T18:29:35;10.00;;;4.40;;
52360;SDS011;38294;42.966;1.608;2022-10-16T18:32:02;10.82;;;4.30;;
52360;SDS011;38294;42.966;1.608;2022-10-16T18:34:27;10.25;;;4.25;;
52360;SDS011;38294;42.966;1.608;2022-10-16T18:36:53;18.98;;;9.02;;
52360;SDS011;38294;42.966;1.608;2022-10-16T18:39:19;13.88;;;5.18;;
52360;SDS011;38294;42.966;1.608;2022-10-16T18:41:47;19.30;;;6.13;;
52360;SDS011;38294;42.966;1.608;2022-10-16T18:44:15;11.23;;;6.35;;
52360;SDS011;38294;42.966;1.608;2022-10-16T18:46:41;11.93;;;5.78;;
52360;SDS011;38294;42.966;1.608;2022-10-16T18:49:06;11.50;;;6.55;;
52360;SDS011;38294;42.966;1.608;2022-10-16T18:51:34;15.32;;;8.40;;
52360;SDS011;38294;42.966;1.608;2022-10-16T18:54:03;14.10;;;6.78;;
52360;SDS011;38294;42.966;1.608;2022-10-16T18:56:32;11.13;;;5.87;;
52360;SDS011;38294;42.966;1.608;2022-10-16T18:58:58;13.70;;;6.53;;
52360;SDS011;38294;42.966;1.608;2022-10-16T19:01:29;12.45;;;6.13;;
52360;SDS011;38294;42.966;1.608;2022-10-16T19:04:01;13.80;;;6.78;;
52360;SDS011;38294;42.966;1.608;2022-10-16T19:06:28;11.15;;;5.82;;